sensor_id;sensor_type;location;lat;lon;timestamp;temperature;humidity
20125;DHT22;10223;50.862;4.360;2022-10-26T00:01:04;15.40;99.90
20125;DHT22;10223;50.862;4.360;2022-10-26T00:03:32;15.40;99.90
20125;DHT22;10223;50.862;4.360;2022-10-26T00:06:07;15.30;99.90
20125;DHT22;10223;50.862;4.360;2022-10-26T00:08:37;15.30;99.90
20125;DHT22;10223;50.862;4.360;2022-10-26T00:11:05;15.30;99.90
20125;DHT22;10223;50.862;4.360;2022-10-26T00:13:32;15.40;99.90
20125;DHT22;10223;50.862;4.360;2022-10-26T00:15:59;15.40;99.90
20125;DHT22;10223;50.862;4.360;2022-10-26T00:18:26;15.30;99.90
20125;DHT22;10223;50.862;4.360;2022-10-26T00:20:53;15.30;99.90
20125;DHT22;10223;50.862;4.360;2022-10-26T00:23:20;15.30;99.90
20125;DHT22;10223;50.862;4.360;2022-10-26T00:25:55;15.30;99.90
20125;DHT22;10223;50.862;4.360;2022-10-26T00:28:22;15.40;99.90
20125;DHT22;10223;50.862;4.360;2022-10-26T00:30:49;15.40;99.90
20125;DHT22;10223;50.862;4.360;2022-10-26T00:33:16;15.40;99.90
20125;DHT22;10223;50.862;4.360;2022-10-26T00:35:46;15.40;99.90
20125;DHT22;10223;50.862;4.360;2022-10-26T00:38:13;15.40;99.90
20125;DHT22;10223;50.862;4.360;2022-10-26T00:40:40;15.30;99.90
20125;DHT22;10223;50.862;4.360;2022-10-26T00:43:14;15.30;99.90
20125;DHT22;10223;50.862;4.360;2022-10-26T00:45:42;15.30;99.90
20125;DHT22;10223;50.862;4.360;2022-10-26T00:48:13;15.30;99.90
20125;DHT22;10223;50.862;4.360;2022-10-26T00:50:43;15.30;99.90
20125;DHT22;10223;50.862;4.360;2022-10-26T00:53:13;15.30;99.90
20125;DHT22;10223;50.862;4.360;2022-10-26T00:55:44;15.40;99.90
20125;DHT22;10223;50.862;4.360;2022-10-26T00:58:17;15.40;99.90
20125;DHT22;10223;50.862;4.360;2022-10-26T01:00:44;15.40;99.90
20125;DHT22;10223;50.862;4.360;2022-10-26T01:03:13;15.40;99.90
20125;DHT22;10223;50.862;4.360;2022-10-26T01:05:43;15.40;99.90
20125;DHT22;10223;50.862;4.360;2022-10-26T01:08:11;15.40;99.90
20125;DHT22;10223;50.862;4.360;2022-10-26T01:10:40;15.40;99.90
20125;DHT22;10223;50.862;4.360;2022-10-26T01:13:09;15.40;99.90
20125;DHT22;10223;50.862;4.360;2022-10-26T01:15:43;15.40;99.90
20125;DHT22;10223;50.862;4.360;2022-10-26T01:18:20;15.40;99.90
20125;DHT22;10223;50.862;4.360;2022-10-26T01:24:00;15.40;99.90
20125;DHT22;10223;50.862;4.360;2022-10-26T01:26:50;15.40;99.90
20125;DHT22;10223;50.862;4.360;2022-10-26T01:29:35;15.40;99.90
20125;DHT22;10223;50.862;4.360;2022-10-26T01:32:10;15.40;99.90
20125;DHT22;10223;50.862;4.360;2022-10-26T01:34:43;15.50;99.90
20125;DHT22;10223;50.862;4.360;2022-10-26T01:37:12;15.50;99.90
20125;DHT22;10223;50.862;4.360;2022-10-26T01:39:44;15.50;99.90
20125;DHT22;10223;50.862;4.360;2022-10-26T01:42:12;15.60;99.90
20125;DHT22;10223;50.862;4.360;2022-10-26T01:44:44;15.60;99.90
20125;DHT22;10223;50.862;4.360;2022-10-26T01:47:14;15.60;99.90
20125;DHT22;10223;50.862;4.360;2022-10-26T01:49:45;15.70;99.90
20125;DHT22;10223;50.862;4.360;2022-10-26T01:52:13;15.70;99.90
20125;DHT22;10223;50.862;4.360;2022-10-26T01:54:40;15.80;99.90
20125;DHT22;10223;50.862;4.360;2022-10-26T01:57:08;15.70;99.90
20125;DHT22;10223;50.862;4.360;2022-10-26T01:59:57;15.80;99.90
20125;DHT22;10223;50.862;4.360;2022-10-26T02:02:46;15.90;99.90
20125;DHT22;10223;50.862;4.360;2022-10-26T02:05:47;15.90;99.90
20125;DHT22;10223;50.862;4.360;2022-10-26T02:08:26;15.90;99.90
20125;DHT22;10223;50.862;4.360;2022-10-26T02:11:03;15.90;99.90
20125;DHT22;10223;50.862;4.360;2022-10-26T02:13:41;16.00;99.90
20125;DHT22;10223;50.862;4.360;2022-10-26T02:16:16;16.00;99.90
20125;DHT22;10223;50.862;4.360;2022-10-26T02:18:52;16.00;99.90
20125;DHT22;10223;50.862;4.360;2022-10-26T02:21:22;16.10;99.90
20125;DHT22;10223;50.862;4.360;2022-10-26T02:23:54;16.10;99.90
20125;DHT22;10223;50.862;4.360;2022-10-26T02:26:24;16.10;99.90
20125;DHT22;10223;50.862;4.360;2022-10-26T02:28:54;16.10;99.90
20125;DHT22;10223;50.862;4.360;2022-10-26T02:31:23;16.10;99.90
20125;DHT22;10223;50.862;4.360;2022-10-26T02:33:53;16.10;99.90
20125;DHT22;10223;50.862;4.360;2022-10-26T02:36:24;16.10;99.90
20125;DHT22;10223;50.862;4.360;2022-10-26T02:38:53;16.10;99.90
20125;DHT22;10223;50.862;4.360;2022-10-26T02:41:21;16.10;99.90
20125;DHT22;10223;50.862;4.360;2022-10-26T02:43:53;16.20;99.90
20125;DHT22;10223;50.862;4.360;2022-10-26T02:46:24;16.20;99.90
20125;DHT22;10223;50.862;4.360;2022-10-26T02:48:57;16.30;99.90
20125;DHT22;10223;50.862;4.360;2022-10-26T02:51:29;16.40;99.90
20125;DHT22;10223;50.862;4.360;2022-10-26T02:54:00;16.50;99.90
20125;DHT22;10223;50.862;4.360;2022-10-26T02:56:33;16.40;99.90
20125;DHT22;10223;50.862;4.360;2022-10-26T02:59:04;16.50;99.90
20125;DHT22;10223;50.862;4.360;2022-10-26T03:01:32;16.50;99.90
20125;DHT22;10223;50.862;4.360;2022-10-26T03:04:01;16.50;99.90
20125;DHT22;10223;50.862;4.360;2022-10-26T03:06:28;16.50;99.90
20125;DHT22;10223;50.862;4.360;2022-10-26T03:08:55;16.50;99.90
20125;DHT22;10223;50.862;4.360;2022-10-26T03:11:22;16.60;99.90
20125;DHT22;10223;50.862;4.360;2022-10-26T03:13:49;16.60;99.90
20125;DHT22;10223;50.862;4.360;2022-10-26T03:16:16;16.50;99.90
20125;DHT22;10223;50.862;4.360;2022-10-26T03:18:43;16.50;99.90
20125;DHT22;10223;50.862;4.360;2022-10-26T03:21:11;16.60;99.90
20125;DHT22;10223;50.862;4.360;2022-10-26T03:23:38;16.50;99.90
20125;DHT22;10223;50.862;4.360;2022-10-26T03:26:06;16.50;99.90
20125;DHT22;10223;50.862;4.360;2022-10-26T03:28:33;16.50;99.90
20125;DHT22;10223;50.862;4.360;2022-10-26T03:31:00;16.50;99.90
20125;DHT22;10223;50.862;4.360;2022-10-26T03:33:27;16.60;99.90
20125;DHT22;10223;50.862;4.360;2022-10-26T03:35:54;16.60;99.90
20125;DHT22;10223;50.862;4.360;2022-10-26T03:38:23;16.60;99.90
20125;DHT22;10223;50.862;4.360;2022-10-26T03:40:51;16.40;99.90
20125;DHT22;10223;50.862;4.360;2022-10-26T03:43:18;16.40;99.90
20125;DHT22;10223;50.862;4.360;2022-10-26T03:45:45;16.40;99.90
20125;DHT22;10223;50.862;4.360;2022-10-26T03:48:12;16.40;99.90
20125;DHT22;10223;50.862;4.360;2022-10-26T03:50:39;16.50;99.90
20125;DHT22;10223;50.862;4.360;2022-10-26T03:53:09;16.50;99.90
20125;DHT22;10223;50.862;4.360;2022-10-26T03:55:37;16.40;99.90
20125;DHT22;10223;50.862;4.360;2022-10-26T03:58:04;16.50;99.90
20125;DHT22;10223;50.862;4.360;2022-10-26T04:00:31;16.50;99.90
20125;DHT22;10223;50.862;4.360;2022-10-26T04:02:59;16.50;99.90
20125;DHT22;10223;50.862;4.360;2022-10-26T04:05:27;16.50;99.90
20125;DHT22;10223;50.862;4.360;2022-10-26T04:07:55;16.40;99.90
20125;DHT22;10223;50.862;4.360;2022-10-26T04:10:23;16.30;99.90
20125;DHT22;10223;50.862;4.360;2022-10-26T04:12:52;16.30;99.90
20125;DHT22;10223;50.862;4.360;2022-10-26T04:15:20;16.30;99.90
20125;DHT22;10223;50.862;4.360;2022-10-26T04:17:47;16.30;99.90
20125;DHT22;10223;50.862;4.360;2022-10-26T04:20:15;16.40;99.90
20125;DHT22;10223;50.862;4.360;2022-10-26T04:22:41;16.40;99.90
20125;DHT22;10223;50.862;4.360;2022-10-26T04:25:09;16.40;99.90
20125;DHT22;10223;50.862;4.360;2022-10-26T04:27:38;16.40;99.90
20125;DHT22;10223;50.862;4.360;2022-10-26T04:30:09;16.40;99.90
20125;DHT22;10223;50.862;4.360;2022-10-26T04:32:36;16.40;99.90
20125;DHT22;10223;50.862;4.360;2022-10-26T04:35:04;16.30;99.90
20125;DHT22;10223;50.862;4.360;2022-10-26T04:37:31;16.40;99.90
20125;DHT22;10223;50.862;4.360;2022-10-26T04:39:58;16.40;99.90
20125;DHT22;10223;50.862;4.360;2022-10-26T04:42:25;16.40;99.90
20125;DHT22;10223;50.862;4.360;2022-10-26T04:44:52;16.40;99.90
20125;DHT22;10223;50.862;4.360;2022-10-26T04:47:20;16.40;99.90
20125;DHT22;10223;50.862;4.360;2022-10-26T04:49:47;16.40;99.90
20125;DHT22;10223;50.862;4.360;2022-10-26T04:52:14;16.40;99.90
20125;DHT22;10223;50.862;4.360;2022-10-26T04:54:41;16.40;99.90
20125;DHT22;10223;50.862;4.360;2022-10-26T04:57:09;16.50;99.90
20125;DHT22;10223;50.862;4.360;2022-10-26T04:59:36;16.40;99.90
20125;DHT22;10223;50.862;4.360;2022-10-26T05:02:02;16.40;99.90
20125;DHT22;10223;50.862;4.360;2022-10-26T05:04:31;16.40;99.90
20125;DHT22;10223;50.862;4.360;2022-10-26T05:06:58;16.40;99.90
20125;DHT22;10223;50.862;4.360;2022-10-26T05:09:25;16.40;99.90
20125;DHT22;10223;50.862;4.360;2022-10-26T05:11:52;16.30;99.90
20125;DHT22;10223;50.862;4.360;2022-10-26T05:14:19;16.40;99.90
20125;DHT22;10223;50.862;4.360;2022-10-26T05:16:45;16.30;99.90
20125;DHT22;10223;50.862;4.360;2022-10-26T05:19:12;16.30;99.90
20125;DHT22;10223;50.862;4.360;2022-10-26T05:21:41;16.40;99.90
20125;DHT22;10223;50.862;4.360;2022-10-26T05:24:08;16.40;99.90
20125;DHT22;10223;50.862;4.360;2022-10-26T05:26:35;16.20;99.90
20125;DHT22;10223;50.862;4.360;2022-10-26T05:29:02;16.20;99.90
20125;DHT22;10223;50.862;4.360;2022-10-26T05:31:29;16.20;99.90
20125;DHT22;10223;50.862;4.360;2022-10-26T05:33:56;16.10;99.90
20125;DHT22;10223;50.862;4.360;2022-10-26T05:36:23;16.10;99.90
20125;DHT22;10223;50.862;4.360;2022-10-26T05:38:51;16.10;99.90
20125;DHT22;10223;50.862;4.360;2022-10-26T05:41:18;16.10;99.90
20125;DHT22;10223;50.862;4.360;2022-10-26T05:43:46;16.10;99.90
20125;DHT22;10223;50.862;4.360;2022-10-26T05:46:13;16.20;99.90
20125;DHT22;10223;50.862;4.360;2022-10-26T05:48:40;16.20;99.90
20125;DHT22;10223;50.862;4.360;2022-10-26T05:51:07;16.20;99.90
20125;DHT22;10223;50.862;4.360;2022-10-26T05:53:35;16.10;99.90
20125;DHT22;10223;50.862;4.360;2022-10-26T05:56:12;16.10;99.90
20125;DHT22;10223;50.862;4.360;2022-10-26T05:58:43;16.30;99.90
20125;DHT22;10223;50.862;4.360;2022-10-26T06:01:17;16.10;99.90
20125;DHT22;10223;50.862;4.360;2022-10-26T06:03:58;16.10;99.90
20125;DHT22;10223;50.862;4.360;2022-10-26T06:06:38;16.10;99.90
20125;DHT22;10223;50.862;4.360;2022-10-26T06:09:09;16.10;99.90
20125;DHT22;10223;50.862;4.360;2022-10-26T06:11:40;16.20;99.90
20125;DHT22;10223;50.862;4.360;2022-10-26T06:14:08;16.10;99.90
20125;DHT22;10223;50.862;4.360;2022-10-26T06:16:45;16.10;99.90
20125;DHT22;10223;50.862;4.360;2022-10-26T06:19:26;16.10;99.90
20125;DHT22;10223;50.862;4.360;2022-10-26T06:22:16;16.10;99.90
20125;DHT22;10223;50.862;4.360;2022-10-26T06:24:52;16.00;99.90
20125;DHT22;10223;50.862;4.360;2022-10-26T06:27:31;16.10;99.90
20125;DHT22;10223;50.862;4.360;2022-10-26T06:30:04;16.00;99.90
20125;DHT22;10223;50.862;4.360;2022-10-26T06:32:32;16.00;99.90
20125;DHT22;10223;50.862;4.360;2022-10-26T06:35:12;16.10;99.90
20125;DHT22;10223;50.862;4.360;2022-10-26T06:37:42;16.10;99.90
20125;DHT22;10223;50.862;4.360;2022-10-26T06:40:11;16.20;99.90
20125;DHT22;10223;50.862;4.360;2022-10-26T06:42:41;16.20;99.90
20125;DHT22;10223;50.862;4.360;2022-10-26T06:45:11;16.00;99.90
20125;DHT22;10223;50.862;4.360;2022-10-26T06:47:43;16.10;99.90
20125;DHT22;10223;50.862;4.360;2022-10-26T06:50:27;16.10;99.90
20125;DHT22;10223;50.862;4.360;2022-10-26T06:53:10;16.30;99.90
20125;DHT22;10223;50.862;4.360;2022-10-26T06:55:44;16.40;99.90
20125;DHT22;10223;50.862;4.360;2022-10-26T06:58:16;16.60;99.90
20125;DHT22;10223;50.862;4.360;2022-10-26T07:00:47;16.60;99.90
20125;DHT22;10223;50.862;4.360;2022-10-26T07:03:15;16.50;99.90
20125;DHT22;10223;50.862;4.360;2022-10-26T07:05:52;16.60;99.90
20125;DHT22;10223;50.862;4.360;2022-10-26T07:08:19;16.70;99.90
20125;DHT22;10223;50.862;4.360;2022-10-26T07:10:53;16.80;99.90
20125;DHT22;10223;50.862;4.360;2022-10-26T07:13:22;17.00;99.90
20125;DHT22;10223;50.862;4.360;2022-10-26T07:15:49;17.20;99.90
20125;DHT22;10223;50.862;4.360;2022-10-26T07:18:16;17.10;99.90
20125;DHT22;10223;50.862;4.360;2022-10-26T07:20:42;17.20;99.90
20125;DHT22;10223;50.862;4.360;2022-10-26T07:23:10;17.10;99.90
20125;DHT22;10223;50.862;4.360;2022-10-26T07:25:37;17.20;99.90
20125;DHT22;10223;50.862;4.360;2022-10-26T07:28:05;17.60;99.90
20125;DHT22;10223;50.862;4.360;2022-10-26T07:30:42;17.70;99.90
20125;DHT22;10223;50.862;4.360;2022-10-26T07:33:11;17.90;99.90
20125;DHT22;10223;50.862;4.360;2022-10-26T07:35:51;17.80;99.90
20125;DHT22;10223;50.862;4.360;2022-10-26T07:38:41;17.80;99.90
20125;DHT22;10223;50.862;4.360;2022-10-26T07:41:37;18.10;99.90
20125;DHT22;10223;50.862;4.360;2022-10-26T07:44:35;18.40;99.90
20125;DHT22;10223;50.862;4.360;2022-10-26T07:50:31;18.50;99.90
20125;DHT22;10223;50.862;4.360;2022-10-26T07:52:58;18.70;99.90
20125;DHT22;10223;50.862;4.360;2022-10-26T07:55:27;18.80;99.90
20125;DHT22;10223;50.862;4.360;2022-10-26T07:57:57;18.70;99.90
20125;DHT22;10223;50.862;4.360;2022-10-26T08:00:24;18.70;99.90
20125;DHT22;10223;50.862;4.360;2022-10-26T08:02:53;18.70;99.90
20125;DHT22;10223;50.862;4.360;2022-10-26T08:05:20;19.00;99.90
20125;DHT22;10223;50.862;4.360;2022-10-26T08:07:51;18.80;99.90
20125;DHT22;10223;50.862;4.360;2022-10-26T08:10:18;19.00;99.90
20125;DHT22;10223;50.862;4.360;2022-10-26T08:12:45;19.20;99.90
20125;DHT22;10223;50.862;4.360;2022-10-26T08:15:12;19.00;99.90
20125;DHT22;10223;50.862;4.360;2022-10-26T08:17:42;19.00;99.90
20125;DHT22;10223;50.862;4.360;2022-10-26T08:20:10;18.90;99.90
20125;DHT22;10223;50.862;4.360;2022-10-26T08:22:37;18.80;99.90
20125;DHT22;10223;50.862;4.360;2022-10-26T08:25:06;18.90;99.90
20125;DHT22;10223;50.862;4.360;2022-10-26T08:27:36;18.60;99.90
20125;DHT22;10223;50.862;4.360;2022-10-26T08:30:03;18.60;99.90
20125;DHT22;10223;50.862;4.360;2022-10-26T08:32:30;18.90;99.90
20125;DHT22;10223;50.862;4.360;2022-10-26T08:34:57;19.00;99.90
20125;DHT22;10223;50.862;4.360;2022-10-26T08:37:25;19.20;99.90
20125;DHT22;10223;50.862;4.360;2022-10-26T08:39:53;19.20;99.90
20125;DHT22;10223;50.862;4.360;2022-10-26T08:42:27;19.30;99.90
20125;DHT22;10223;50.862;4.360;2022-10-26T08:44:59;19.50;99.90
20125;DHT22;10223;50.862;4.360;2022-10-26T08:47:31;19.90;99.90
20125;DHT22;10223;50.862;4.360;2022-10-26T08:50:03;19.80;99.90
20125;DHT22;10223;50.862;4.360;2022-10-26T08:52:35;19.40;99.90
20125;DHT22;10223;50.862;4.360;2022-10-26T08:55:08;19.50;99.90
20125;DHT22;10223;50.862;4.360;2022-10-26T08:57:41;19.40;99.90
20125;DHT22;10223;50.862;4.360;2022-10-26T09:00:12;19.30;99.90
20125;DHT22;10223;50.862;4.360;2022-10-26T09:02:41;19.70;99.90
20125;DHT22;10223;50.862;4.360;2022-10-26T09:05:14;19.80;99.90
20125;DHT22;10223;50.862;4.360;2022-10-26T09:07:51;19.90;99.90
20125;DHT22;10223;50.862;4.360;2022-10-26T09:10:38;19.90;99.90
20125;DHT22;10223;50.862;4.360;2022-10-26T09:13:19;19.90;99.90
20125;DHT22;10223;50.862;4.360;2022-10-26T09:15:58;20.00;99.90
20125;DHT22;10223;50.862;4.360;2022-10-26T09:18:42;20.00;99.90
20125;DHT22;10223;50.862;4.360;2022-10-26T09:21:34;20.10;99.90
20125;DHT22;10223;50.862;4.360;2022-10-26T09:24:12;20.00;99.90
20125;DHT22;10223;50.862;4.360;2022-10-26T09:26:53;20.00;99.90
20125;DHT22;10223;50.862;4.360;2022-10-26T09:29:26;19.90;99.90
20125;DHT22;10223;50.862;4.360;2022-10-26T09:31:56;20.30;99.90
20125;DHT22;10223;50.862;4.360;2022-10-26T09:34:30;20.50;99.90
20125;DHT22;10223;50.862;4.360;2022-10-26T09:36:58;20.50;99.90
20125;DHT22;10223;50.862;4.360;2022-10-26T09:39:35;20.50;99.90
20125;DHT22;10223;50.862;4.360;2022-10-26T09:42:14;20.80;99.90
20125;DHT22;10223;50.862;4.360;2022-10-26T09:44:51;20.70;99.90
20125;DHT22;10223;50.862;4.360;2022-10-26T09:47:34;20.90;99.90
20125;DHT22;10223;50.862;4.360;2022-10-26T09:50:32;20.60;99.90
20125;DHT22;10223;50.862;4.360;2022-10-26T09:53:02;20.60;99.90
20125;DHT22;10223;50.862;4.360;2022-10-26T09:55:31;20.40;99.90
20125;DHT22;10223;50.862;4.360;2022-10-26T09:58:05;20.30;99.90
20125;DHT22;10223;50.862;4.360;2022-10-26T10:00:43;20.50;99.90
20125;DHT22;10223;50.862;4.360;2022-10-26T10:03:19;20.40;99.90
20125;DHT22;10223;50.862;4.360;2022-10-26T10:06:18;20.30;99.90
20125;DHT22;10223;50.862;4.360;2022-10-26T10:09:05;20.70;99.90
20125;DHT22;10223;50.862;4.360;2022-10-26T10:11:39;20.70;99.90
20125;DHT22;10223;50.862;4.360;2022-10-26T10:14:14;21.00;99.90
20125;DHT22;10223;50.862;4.360;2022-10-26T10:16:52;21.00;99.90
20125;DHT22;10223;50.862;4.360;2022-10-26T10:19:24;21.30;99.90
20125;DHT22;10223;50.862;4.360;2022-10-26T10:21:54;21.40;99.90
20125;DHT22;10223;50.862;4.360;2022-10-26T10:24:25;21.50;99.90
20125;DHT22;10223;50.862;4.360;2022-10-26T10:26:59;21.70;99.90
20125;DHT22;10223;50.862;4.360;2022-10-26T10:29:26;21.50;99.90
20125;DHT22;10223;50.862;4.360;2022-10-26T10:31:59;21.70;99.90
20125;DHT22;10223;50.862;4.360;2022-10-26T10:34:29;21.80;99.90
20125;DHT22;10223;50.862;4.360;2022-10-26T10:36:57;21.40;99.90
20125;DHT22;10223;50.862;4.360;2022-10-26T10:39:37;21.00;99.90
20125;DHT22;10223;50.862;4.360;2022-10-26T10:42:10;21.00;99.90
20125;DHT22;10223;50.862;4.360;2022-10-26T10:44:40;21.00;99.90
20125;DHT22;10223;50.862;4.360;2022-10-26T10:47:20;21.10;99.90
20125;DHT22;10223;50.862;4.360;2022-10-26T10:49:53;21.10;99.90
20125;DHT22;10223;50.862;4.360;2022-10-26T10:52:23;21.40;99.90
20125;DHT22;10223;50.862;4.360;2022-10-26T10:54:56;21.30;99.90
20125;DHT22;10223;50.862;4.360;2022-10-26T10:57:31;21.60;99.90
20125;DHT22;10223;50.862;4.360;2022-10-26T11:00:02;21.70;99.90
20125;DHT22;10223;50.862;4.360;2022-10-26T11:05:37;21.50;99.90
20125;DHT22;10223;50.862;4.360;2022-10-26T11:08:09;21.50;99.90
20125;DHT22;10223;50.862;4.360;2022-10-26T11:10:40;21.20;99.90
20125;DHT22;10223;50.862;4.360;2022-10-26T11:13:16;21.00;99.90
20125;DHT22;10223;50.862;4.360;2022-10-26T11:15:44;21.10;99.90
20125;DHT22;10223;50.862;4.360;2022-10-26T11:18:17;21.10;99.90
20125;DHT22;10223;50.862;4.360;2022-10-26T11:20:52;20.90;99.90
20125;DHT22;10223;50.862;4.360;2022-10-26T11:23:33;21.00;99.90
20125;DHT22;10223;50.862;4.360;2022-10-26T11:26:08;21.10;99.90
20125;DHT22;10223;50.862;4.360;2022-10-26T11:28:43;21.10;99.90
20125;DHT22;10223;50.862;4.360;2022-10-26T11:31:13;21.30;99.90
20125;DHT22;10223;50.862;4.360;2022-10-26T11:33:47;21.20;99.90
20125;DHT22;10223;50.862;4.360;2022-10-26T11:36:21;21.20;99.90
20125;DHT22;10223;50.862;4.360;2022-10-26T11:38:57;21.20;99.90
20125;DHT22;10223;50.862;4.360;2022-10-26T11:41:31;21.00;99.90
20125;DHT22;10223;50.862;4.360;2022-10-26T11:44:04;20.90;99.90
20125;DHT22;10223;50.862;4.360;2022-10-26T11:46:37;20.80;99.90
20125;DHT22;10223;50.862;4.360;2022-10-26T11:49:14;20.70;99.90
20125;DHT22;10223;50.862;4.360;2022-10-26T11:51:47;20.60;99.90
20125;DHT22;10223;50.862;4.360;2022-10-26T11:54:19;20.20;99.90
20125;DHT22;10223;50.862;4.360;2022-10-26T11:56:51;20.30;99.90
20125;DHT22;10223;50.862;4.360;2022-10-26T11:59:20;20.90;99.90
20125;DHT22;10223;50.862;4.360;2022-10-26T12:01:49;20.70;99.90
20125;DHT22;10223;50.862;4.360;2022-10-26T12:04:20;20.60;99.90
20125;DHT22;10223;50.862;4.360;2022-10-26T12:06:48;20.80;99.90
20125;DHT22;10223;50.862;4.360;2022-10-26T12:09:20;20.80;99.90
20125;DHT22;10223;50.862;4.360;2022-10-26T12:11:55;20.60;99.90
20125;DHT22;10223;50.862;4.360;2022-10-26T12:14:28;20.50;99.90
20125;DHT22;10223;50.862;4.360;2022-10-26T12:17:03;20.30;99.90
20125;DHT22;10223;50.862;4.360;2022-10-26T12:19:35;20.40;99.90
20125;DHT22;10223;50.862;4.360;2022-10-26T12:22:08;20.50;99.90
20125;DHT22;10223;50.862;4.360;2022-10-26T12:24:42;20.70;99.90
20125;DHT22;10223;50.862;4.360;2022-10-26T12:27:30;21.10;99.90
20125;DHT22;10223;50.862;4.360;2022-10-26T12:30:21;20.90;99.90
20125;DHT22;10223;50.862;4.360;2022-10-26T12:32:51;21.00;99.90
20125;DHT22;10223;50.862;4.360;2022-10-26T12:35:34;20.90;99.90
20125;DHT22;10223;50.862;4.360;2022-10-26T12:38:26;20.90;99.90
20125;DHT22;10223;50.862;4.360;2022-10-26T12:41:17;21.30;99.90
20125;DHT22;10223;50.862;4.360;2022-10-26T12:43:45;21.40;99.90
20125;DHT22;10223;50.862;4.360;2022-10-26T12:46:39;21.70;99.90
20125;DHT22;10223;50.862;4.360;2022-10-26T12:52:29;21.40;99.90
20125;DHT22;10223;50.862;4.360;2022-10-26T12:58:13;21.30;99.90
20125;DHT22;10223;50.862;4.360;2022-10-26T13:00:50;21.60;99.90
20125;DHT22;10223;50.862;4.360;2022-10-26T13:03:36;21.90;99.90
20125;DHT22;10223;50.862;4.360;2022-10-26T13:06:17;22.20;99.90
20125;DHT22;10223;50.862;4.360;2022-10-26T13:08:52;21.30;99.90
20125;DHT22;10223;50.862;4.360;2022-10-26T13:11:26;21.30;99.90
20125;DHT22;10223;50.862;4.360;2022-10-26T13:13:56;21.10;99.90
20125;DHT22;10223;50.862;4.360;2022-10-26T13:16:25;21.20;99.90
20125;DHT22;10223;50.862;4.360;2022-10-26T13:18:54;21.40;99.90
20125;DHT22;10223;50.862;4.360;2022-10-26T13:21:22;21.30;99.90
20125;DHT22;10223;50.862;4.360;2022-10-26T13:23:58;21.30;99.90
20125;DHT22;10223;50.862;4.360;2022-10-26T13:26:28;21.50;99.90
20125;DHT22;10223;50.862;4.360;2022-10-26T13:28:57;21.60;99.90
20125;DHT22;10223;50.862;4.360;2022-10-26T13:31:52;21.40;99.90
20125;DHT22;10223;50.862;4.360;2022-10-26T13:34:22;21.00;99.90
20125;DHT22;10223;50.862;4.360;2022-10-26T13:36:53;21.10;99.90
20125;DHT22;10223;50.862;4.360;2022-10-26T13:39:28;21.20;99.90
20125;DHT22;10223;50.862;4.360;2022-10-26T13:41:57;21.20;99.90
20125;DHT22;10223;50.862;4.360;2022-10-26T13:44:28;21.20;99.90
20125;DHT22;10223;50.862;4.360;2022-10-26T13:47:00;21.20;99.90
20125;DHT22;10223;50.862;4.360;2022-10-26T13:49:32;21.20;99.90
20125;DHT22;10223;50.862;4.360;2022-10-26T13:52:02;21.50;99.90
20125;DHT22;10223;50.862;4.360;2022-10-26T13:54:34;21.60;99.90
20125;DHT22;10223;50.862;4.360;2022-10-26T13:57:14;21.70;99.90
20125;DHT22;10223;50.862;4.360;2022-10-26T13:59:44;21.50;99.90
20125;DHT22;10223;50.862;4.360;2022-10-26T14:02:16;21.50;99.90
20125;DHT22;10223;50.862;4.360;2022-10-26T14:04:50;21.40;99.90
20125;DHT22;10223;50.862;4.360;2022-10-26T14:07:20;21.70;99.90
20125;DHT22;10223;50.862;4.360;2022-10-26T14:09:54;21.70;99.90
20125;DHT22;10223;50.862;4.360;2022-10-26T14:12:24;21.60;99.90
20125;DHT22;10223;50.862;4.360;2022-10-26T14:14:58;21.30;99.90
20125;DHT22;10223;50.862;4.360;2022-10-26T14:17:27;21.30;99.90
20125;DHT22;10223;50.862;4.360;2022-10-26T14:19:54;21.30;99.90
20125;DHT22;10223;50.862;4.360;2022-10-26T14:22:22;21.10;99.90
20125;DHT22;10223;50.862;4.360;2022-10-26T14:24:55;21.00;99.90
20125;DHT22;10223;50.862;4.360;2022-10-26T14:27:23;20.90;99.90
20125;DHT22;10223;50.862;4.360;2022-10-26T14:29:51;20.90;99.90
20125;DHT22;10223;50.862;4.360;2022-10-26T14:32:20;21.00;99.90
20125;DHT22;10223;50.862;4.360;2022-10-26T14:34:47;21.10;99.90
20125;DHT22;10223;50.862;4.360;2022-10-26T14:37:25;21.00;99.90
20125;DHT22;10223;50.862;4.360;2022-10-26T14:39:55;21.10;99.90
20125;DHT22;10223;50.862;4.360;2022-10-26T14:42:26;21.10;99.90
20125;DHT22;10223;50.862;4.360;2022-10-26T14:44:55;21.10;99.90
20125;DHT22;10223;50.862;4.360;2022-10-26T14:47:24;21.30;99.90
20125;DHT22;10223;50.862;4.360;2022-10-26T14:49:52;21.10;99.90
20125;DHT22;10223;50.862;4.360;2022-10-26T14:52:22;21.00;99.90
20125;DHT22;10223;50.862;4.360;2022-10-26T14:54:58;21.20;99.90
20125;DHT22;10223;50.862;4.360;2022-10-26T14:57:33;21.20;99.90
20125;DHT22;10223;50.862;4.360;2022-10-26T15:00:09;21.40;99.90
20125;DHT22;10223;50.862;4.360;2022-10-26T15:02:39;21.40;99.90
20125;DHT22;10223;50.862;4.360;2022-10-26T15:05:18;21.40;99.90
20125;DHT22;10223;50.862;4.360;2022-10-26T15:07:45;21.50;99.90
20125;DHT22;10223;50.862;4.360;2022-10-26T15:10:47;21.40;99.90
20125;DHT22;10223;50.862;4.360;2022-10-26T15:13:20;21.30;99.90
20125;DHT22;10223;50.862;4.360;2022-10-26T15:15:50;21.20;99.90
20125;DHT22;10223;50.862;4.360;2022-10-26T15:18:22;21.20;99.90
20125;DHT22;10223;50.862;4.360;2022-10-26T15:20:51;21.20;99.90
20125;DHT22;10223;50.862;4.360;2022-10-26T15:23:19;21.20;99.90
20125;DHT22;10223;50.862;4.360;2022-10-26T15:25:55;21.20;99.90
20125;DHT22;10223;50.862;4.360;2022-10-26T15:28:24;21.10;99.90
20125;DHT22;10223;50.862;4.360;2022-10-26T15:31:02;21.10;99.90
20125;DHT22;10223;50.862;4.360;2022-10-26T15:33:30;21.10;99.90
20125;DHT22;10223;50.862;4.360;2022-10-26T15:36:14;20.90;99.90
20125;DHT22;10223;50.862;4.360;2022-10-26T15:38:42;20.80;99.90
20125;DHT22;10223;50.862;4.360;2022-10-26T15:41:15;20.90;99.90
20125;DHT22;10223;50.862;4.360;2022-10-26T15:43:46;20.90;99.90
20125;DHT22;10223;50.862;4.360;2022-10-26T15:46:16;20.70;99.90
20125;DHT22;10223;50.862;4.360;2022-10-26T15:48:46;20.70;99.90
20125;DHT22;10223;50.862;4.360;2022-10-26T15:51:14;20.70;99.90
20125;DHT22;10223;50.862;4.360;2022-10-26T15:53:41;20.70;99.90
20125;DHT22;10223;50.862;4.360;2022-10-26T15:56:15;20.80;99.90
20125;DHT22;10223;50.862;4.360;2022-10-26T15:58:43;20.80;99.90
20125;DHT22;10223;50.862;4.360;2022-10-26T16:01:14;20.90;99.90
20125;DHT22;10223;50.862;4.360;2022-10-26T16:03:41;20.80;99.90
20125;DHT22;10223;50.862;4.360;2022-10-26T16:06:14;20.70;99.90
20125;DHT22;10223;50.862;4.360;2022-10-26T16:08:43;20.70;99.90
20125;DHT22;10223;50.862;4.360;2022-10-26T16:11:11;20.70;99.90
20125;DHT22;10223;50.862;4.360;2022-10-26T16:13:40;20.60;99.90
20125;DHT22;10223;50.862;4.360;2022-10-26T16:16:09;20.70;99.90